Wind From: 11-12-2017 12:03 Until: 12-12-2017 06:00 warning for: Wind Level: Orange info button

Power and phone distribution networks may be disrupted for relatively long periods., Roofs and chimneys can be damaged. , Tree branches may break. , Vehicles can be deported. , Traffic may be disrupted, particularly on secondary roads in forest areas. Limit your trips. , Limit your speed in highway driving, especially if you drive a vehicle or hitch sensitive to wind. , Do not go for walks in forests or along the coast., In town, be vigilant against possible falling objects., Do not work on roofs and do not touch any electrical line fallen on the ground., Store or secure sensitive objects to wind or likely to be damaged., Always install power generators outside buildings. 


Meteo18 Weather Cam more information Meteo18 Weather Cam


Thunder radar more information blitzortung!


Rain radar more information rain snow radar


Visit our other weather sites:

Template documentation
and downloads

And another site



Weather Underground History page Text

Daily Summary for July 14, 2016 Units:  Metric    English   Both
« Previous Day
Next Day »
Daily Weekly Monthly Yearly Custom
  High: Low: Average:
Temperature: 19.8 °C 9.9 °C 14.2 °C
Dew Point: 12.9 °C 8.5 °C 9.9 °C
Humidity: 96 % 50 % 77 %
Wind Speed: 14.5 km/h 0.0 km/h 1.6 km/h
Wind Gust: 19.3 km/h - -
Wind:- - ENE
Pressure: 1026.0 hPa 1021.2 hPa -
Precipitation: 1.3 mm    
Historical Graphs
 
 
Tabular Data for July 14, 2016
Time Temperature Dew Point Pressure Wind Wind Speed Wind Gust Humidity Rainfall Rate (Hourly)
00:02 10.7 °C 9.6 °C 1021.6 hPa Calm     93 % 0.0 mm
00:07 10.6 °C 9.5 °C 1021.6 hPa Calm     93 % 0.0 mm
00:12 10.4 °C 9.3 °C 1021.6 hPa Calm     93 % 0.0 mm
00:17 10.3 °C 9.2 °C 1021.6 hPa Calm     93 % 0.0 mm
00:22 10.2 °C 9.3 °C 1021.6 hPa Calm     94 % 0.0 mm
00:27 10.2 °C 9.3 °C 1021.9 hPa Calm     94 % 0.0 mm
00:32 10.2 °C 9.3 °C 1021.9 hPa Calm     94 % 0.0 mm
00:42 10.0 °C 9.1 °C 1021.9 hPa Calm     94 % 0.0 mm
00:47 9.9 °C 9.1 °C 1021.9 hPa Calm     95 % 0.0 mm
00:52 10.1 °C 9.3 °C 1021.6 hPa Calm     95 % 0.0 mm
00:57 10.3 °C 9.7 °C 1021.6 hPa Calm     96 % 0.0 mm
01:02 10.4 °C 9.8 °C 1021.6 hPa Calm     96 % 0.0 mm
01:12 10.6 °C 10.0 °C 1021.6 hPa Calm     96 % 0.0 mm
01:17 10.7 °C 10.1 °C 1021.6 hPa Calm     96 % 0.0 mm
01:22 10.8 °C 10.0 °C 1021.6 hPa Calm     95 % 0.0 mm
01:27 10.9 °C 10.1 °C 1021.6 hPa Calm   1.6 km/h 95 % 0.0 mm
01:32 10.9 °C 10.1 °C 1021.6 hPa Calm   1.6 km/h 95 % 0.0 mm
01:42 10.9 °C 10.1 °C 1021.6 hPa Calm   3.2 km/h 95 % 0.0 mm
01:47 11.0 °C 10.1 °C 1021.6 hPa Calm   3.2 km/h 94 % 0.0 mm
01:52 11.0 °C 10.1 °C 1021.6 hPa Calm   3.2 km/h 94 % 0.0 mm
01:57 11.1 °C 10.2 °C 1021.6 hPa Calm   1.6 km/h 94 % 0.0 mm
02:02 11.1 °C 10.0 °C 1021.6 hPa Calm   1.6 km/h 93 % 0.0 mm
02:07 11.0 °C 9.9 °C 1021.6 hPa Calm   1.6 km/h 93 % 0.3 mm
02:12 11.0 °C 9.9 °C 1021.6 hPa Calm     93 % 0.3 mm
02:17 11.1 °C 10.0 °C 1021.6 hPa ENE 1.6 km/h 3.2 km/h 93 % 0.3 mm
02:22 11.1 °C 10.0 °C 1021.6 hPa Calm   3.2 km/h 93 % 0.3 mm
02:27 11.1 °C 10.0 °C 1021.6 hPa Calm   3.2 km/h 93 % 0.3 mm
02:32 11.1 °C 10.0 °C 1021.6 hPa Calm   3.2 km/h 93 % 0.3 mm
02:42 11.1 °C 9.8 °C 1021.6 hPa Calm   3.2 km/h 92 % 0.3 mm
02:47 11.1 °C 9.8 °C 1021.6 hPa Calm   3.2 km/h 92 % 0.3 mm
02:52 11.1 °C 9.8 °C 1021.6 hPa East 1.6 km/h 3.2 km/h 92 % 0.3 mm
02:57 11.1 °C 9.8 °C 1021.6 hPa Calm   3.2 km/h 92 % 0.3 mm
03:02 11.0 °C 9.8 °C 1021.6 hPa ENE 3.2 km/h 4.8 km/h 92 % 0.3 mm
03:12 10.9 °C 9.7 °C 1021.6 hPa Calm   4.8 km/h 92 % 0.0 mm
03:17 10.8 °C 9.6 °C 1021.2 hPa Calm   4.8 km/h 92 % 0.0 mm
03:22 10.7 °C 9.5 °C 1021.6 hPa Calm   1.6 km/h 92 % 0.0 mm
03:32 10.5 °C 9.4 °C 1021.6 hPa Calm   1.6 km/h 93 % 0.0 mm
03:37 10.4 °C 9.3 °C 1021.6 hPa Calm   1.6 km/h 93 % 0.0 mm
03:42 10.4 °C 9.3 °C 1021.6 hPa Calm   1.6 km/h 93 % 0.0 mm
03:47 10.5 °C 9.6 °C 1021.6 hPa Calm   1.6 km/h 94 % 0.0 mm
03:52 10.7 °C 9.8 °C 1021.6 hPa NE 1.6 km/h 4.8 km/h 94 % 0.0 mm
03:57 10.8 °C 9.7 °C 1021.2 hPa Calm   4.8 km/h 93 % 0.0 mm
04:02 10.9 °C 9.8 °C 1021.2 hPa Calm   4.8 km/h 93 % 0.0 mm
04:07 10.9 °C 9.8 °C 1021.2 hPa Calm   4.8 km/h 93 % 0.0 mm
04:12 10.9 °C 9.8 °C 1021.2 hPa Calm   4.8 km/h 93 % 0.0 mm
04:17 10.8 °C 9.7 °C 1021.2 hPa Calm   4.8 km/h 93 % 0.0 mm
04:22 10.8 °C 9.7 °C 1021.2 hPa Calm   1.6 km/h 93 % 0.0 mm
04:27 10.9 °C 9.8 °C 1021.2 hPa Calm     93 % 0.0 mm
04:32 10.9 °C 9.8 °C 1021.2 hPa Calm     93 % 0.0 mm
04:37 10.9 °C 9.8 °C 1021.2 hPa Calm     93 % 0.0 mm
04:42 10.9 °C 9.8 °C 1021.2 hPa Calm     93 % 0.0 mm
04:47 10.8 °C 9.7 °C 1021.2 hPa Calm     93 % 0.0 mm
04:52 10.9 °C 9.8 °C 1021.2 hPa Calm     93 % 0.0 mm
04:57 10.9 °C 9.7 °C 1021.2 hPa Calm     92 % 0.0 mm
05:02 10.9 °C 9.7 °C 1021.2 hPa Calm     92 % 0.0 mm
05:07 10.9 °C 9.7 °C 1021.2 hPa Calm     92 % 0.0 mm
05:12 10.9 °C 9.8 °C 1021.2 hPa Calm     93 % 0.0 mm
05:17 10.8 °C 9.7 °C 1021.2 hPa Calm     93 % 0.0 mm
05:22 10.8 °C 9.7 °C 1021.2 hPa Calm     93 % 0.0 mm
05:27 10.7 °C 9.6 °C 1021.2 hPa Calm     93 % 0.0 mm
05:32 10.7 °C 9.6 °C 1021.2 hPa Calm     93 % 0.0 mm
05:37 10.7 °C 9.6 °C 1021.2 hPa Calm     93 % 0.0 mm
05:42 10.6 °C 9.4 °C 1021.2 hPa Calm     92 % 0.0 mm
05:47 10.5 °C 9.4 °C 1021.2 hPa Calm     93 % 0.0 mm
05:57 10.3 °C 9.2 °C 1021.2 hPa Calm     93 % 0.0 mm
06:02 10.3 °C 9.2 °C 1021.2 hPa Calm     93 % 0.0 mm
06:07 10.2 °C 9.1 °C 1021.2 hPa Calm     93 % 0.0 mm
06:12 10.1 °C 9.0 °C 1021.2 hPa Calm     93 % 0.0 mm
06:17 10.1 °C 9.2 °C 1021.6 hPa Calm     94 % 0.0 mm
06:22 10.1 °C 9.2 °C 1021.6 hPa Calm     94 % 0.0 mm
06:27 10.2 °C 9.3 °C 1021.6 hPa Calm     94 % 0.0 mm
06:32 10.2 °C 9.4 °C 1021.6 hPa Calm     95 % 0.0 mm
06:42 10.1 °C 9.2 °C 1021.6 hPa Calm     94 % 0.0 mm
06:47 10.1 °C 9.2 °C 1021.6 hPa Calm     94 % 0.0 mm
06:52 10.1 °C 9.3 °C 1021.6 hPa Calm     95 % 0.0 mm
07:02 10.2 °C 9.4 °C 1021.6 hPa Calm     95 % 0.0 mm
07:07 10.3 °C 9.5 °C 1021.6 hPa Calm     95 % 0.0 mm
07:12 10.4 °C 9.6 °C 1021.6 hPa Calm     95 % 0.0 mm
07:17 10.6 °C 9.8 °C 1021.6 hPa Calm     95 % 0.0 mm
07:22 10.7 °C 9.9 °C 1021.6 hPa Calm     95 % 0.0 mm
07:27 10.6 °C 9.8 °C 1021.9 hPa Calm     95 % 0.0 mm
07:32 10.7 °C 9.9 °C 1021.6 hPa Calm     95 % 0.0 mm
07:37 10.8 °C 10.0 °C 1021.6 hPa Calm     95 % 0.0 mm
07:42 10.8 °C 10.0 °C 1021.6 hPa Calm     95 % 0.0 mm
07:47 10.8 °C 10.0 °C 1021.6 hPa Calm     95 % 0.0 mm
07:52 10.9 °C 10.0 °C 1021.9 hPa Calm     94 % 0.0 mm
07:57 11.0 °C 10.1 °C 1021.9 hPa Calm     94 % 0.0 mm
08:02 11.1 °C 10.2 °C 1021.9 hPa Calm     94 % 0.0 mm
08:07 11.2 °C 10.3 °C 1021.9 hPa Calm     94 % 0.0 mm
08:12 11.2 °C 10.1 °C 1021.9 hPa Calm     93 % 0.0 mm
08:17 11.4 °C 10.5 °C 1021.9 hPa Calm     94 % 0.0 mm
08:22 11.6 °C 10.5 °C 1021.9 hPa Calm     93 % 0.0 mm
08:27 11.7 °C 10.6 °C 1021.9 hPa Calm     93 % 0.0 mm
08:32 11.8 °C 10.5 °C 1021.9 hPa Calm     92 % 0.0 mm
08:37 11.8 °C 10.4 °C 1021.9 hPa Calm     91 % 0.0 mm
08:42 11.8 °C 10.4 °C 1021.9 hPa Calm     91 % 0.0 mm
08:47 11.8 °C 10.4 °C 1021.9 hPa Calm     91 % 0.0 mm
08:52 11.9 °C 10.6 °C 1021.9 hPa Calm     92 % 0.0 mm
08:57 12.3 °C 11.0 °C 1021.9 hPa Calm     92 % 0.0 mm
09:02 12.8 °C 11.4 °C 1021.9 hPa Calm     91 % 0.0 mm
09:12 13.2 °C 11.3 °C 1022.2 hPa Calm     88 % 0.0 mm
09:17 13.3 °C 11.2 °C 1022.2 hPa Calm     87 % 0.0 mm
09:22 13.4 °C 11.1 °C 1022.2 hPa Calm     86 % 0.0 mm
09:32 13.8 °C 11.3 °C 1022.2 hPa Calm     85 % 0.0 mm
09:37 14.1 °C 11.4 °C 1022.2 hPa Calm     84 % 0.0 mm
09:42 14.6 °C 11.6 °C 1022.2 hPa Calm     82 % 0.0 mm
09:47 14.8 °C 11.2 °C 1022.2 hPa Calm     79 % 0.0 mm
09:52 14.7 °C 10.7 °C 1022.2 hPa Calm     77 % 0.0 mm
10:02 14.9 °C 11.5 °C 1022.2 hPa Calm     80 % 0.0 mm
10:07 15.7 °C 11.3 °C 1022.2 hPa Calm     75 % 0.0 mm
10:12 15.9 °C 10.9 °C 1022.2 hPa Calm     72 % 0.0 mm
10:17 15.6 °C 10.4 °C 1022.2 hPa Calm     71 % 0.0 mm
10:22 15.3 °C 10.3 °C 1022.2 hPa Calm     72 % 0.0 mm
10:27 15.4 °C 10.6 °C 1022.2 hPa Calm     73 % 0.0 mm
10:32 15.5 °C 10.5 °C 1022.2 hPa Calm     72 % 0.0 mm
10:37 16.3 °C 11.5 °C 1022.2 hPa Calm     73 % 0.0 mm
10:42 16.7 °C 10.5 °C 1021.9 hPa Calm     67 % 0.0 mm
10:47 16.7 °C 8.9 °C 1021.9 hPa East 1.6 km/h 11.3 km/h 60 % 0.0 mm
10:52 17.0 °C 8.9 °C 1021.9 hPa Calm   11.3 km/h 59 % 0.0 mm
10:57 17.6 °C 10.5 °C 1021.9 hPa ENE 1.6 km/h 11.3 km/h 63 % 0.0 mm
11:02 17.4 °C 8.5 °C 1021.9 hPa ENE 3.2 km/h 11.3 km/h 56 % 0.0 mm
11:12 17.7 °C 8.8 °C 1021.9 hPa ESE 1.6 km/h 12.9 km/h 56 % 0.0 mm
11:17 17.8 °C 8.9 °C 1021.9 hPa East 4.8 km/h 9.7 km/h 56 % 0.0 mm
11:22 17.9 °C 10.0 °C 1021.9 hPa Calm   11.3 km/h 60 % 0.0 mm
11:27 18.2 °C 9.0 °C 1021.9 hPa NE 8.0 km/h 11.3 km/h 55 % 0.0 mm
11:32 18.1 °C 8.9 °C 1022.2 hPa NNE 6.4 km/h 12.9 km/h 55 % 0.0 mm
11:42 17.2 °C 8.6 °C 1022.2 hPa Calm   16.1 km/h 57 % 0.0 mm
11:47 17.1 °C 9.5 °C 1022.2 hPa Calm   16.1 km/h 61 % 0.0 mm
11:52 17.9 °C 9.5 °C 1021.9 hPa NE 6.4 km/h 16.1 km/h 58 % 0.0 mm
11:57 17.9 °C 8.7 °C 1021.9 hPa NE 6.4 km/h 11.3 km/h 55 % 0.0 mm
12:02 17.9 °C 9.5 °C 1021.9 hPa Calm   11.3 km/h 58 % 0.0 mm
12:07 18.3 °C 9.4 °C 1021.9 hPa East 3.2 km/h 19.3 km/h 56 % 0.0 mm
12:12 18.5 °C 10.1 °C 1021.9 hPa NE 6.4 km/h 19.3 km/h 58 % 0.0 mm
12:17 18.2 °C 9.0 °C 1021.9 hPa Calm   19.3 km/h 55 % 0.0 mm
12:22 18.1 °C 9.2 °C 1022.2 hPa SSW 1.6 km/h 19.3 km/h 56 % 0.0 mm
12:27 18.4 °C 9.5 °C 1021.9 hPa NE 11.3 km/h 17.7 km/h 56 % 0.0 mm
12:32 19.1 °C 10.1 °C 1021.9 hPa NE 9.7 km/h 17.7 km/h 56 % 0.0 mm
12:37 19.6 °C 9.8 °C 1021.9 hPa NE 3.2 km/h 19.3 km/h 53 % 0.0 mm
12:42 19.2 °C 9.1 °C 1021.9 hPa NE 3.2 km/h 19.3 km/h 52 % 0.0 mm
12:47 18.7 °C 8.9 °C 1022.2 hPa NNE 8.0 km/h 19.3 km/h 53 % 0.0 mm
12:52 18.1 °C 8.9 °C 1022.2 hPa ENE 3.2 km/h 16.1 km/h 55 % 0.0 mm
12:57 17.4 °C 9.8 °C 1022.2 hPa NE 3.2 km/h 9.7 km/h 61 % 0.0 mm
13:02 16.4 °C 10.0 °C 1022.6 hPa East 3.2 km/h 11.3 km/h 66 % 0.0 mm
13:12 15.3 °C 8.8 °C 1022.6 hPa ENE 1.6 km/h 12.9 km/h 65 % 0.0 mm
13:17 15.1 °C 8.8 °C 1022.6 hPa NE 4.8 km/h 12.9 km/h 66 % 0.0 mm
13:22 14.8 °C 8.5 °C 1022.6 hPa SE 4.8 km/h 12.9 km/h 66 % 0.0 mm
13:27 14.9 °C 9.0 °C 1022.6 hPa ENE 4.8 km/h 11.3 km/h 68 % 0.0 mm
13:32 15.3 °C 9.2 °C 1022.9 hPa ESE 4.8 km/h 9.7 km/h 67 % 0.0 mm
13:37 15.8 °C 10.1 °C 1022.6 hPa ENE 1.6 km/h 8.0 km/h 69 % 0.0 mm
13:42 16.6 °C 10.4 °C 1022.6 hPa Calm   8.0 km/h 67 % 0.0 mm
13:47 17.6 °C 11.8 °C 1022.6 hPa NE 1.6 km/h 8.0 km/h 69 % 0.0 mm
13:52 18.3 °C 9.9 °C 1022.6 hPa Calm   6.4 km/h 58 % 0.0 mm
13:57 18.8 °C 10.9 °C 1022.6 hPa Calm   6.4 km/h 60 % 0.0 mm
14:02 19.4 °C 11.4 °C 1022.6 hPa South 4.8 km/h 9.7 km/h 60 % 0.0 mm
14:12 18.5 °C 10.6 °C 1022.6 hPa NE 1.6 km/h 14.5 km/h 60 % 0.0 mm
14:17 18.7 °C 10.0 °C 1022.2 hPa Calm   14.5 km/h 57 % 0.0 mm
14:22 17.8 °C 10.4 °C 1022.6 hPa ENE 4.8 km/h 9.7 km/h 62 % 0.0 mm
14:32 14.4 °C 10.2 °C 1023.2 hPa East 1.6 km/h 9.7 km/h 76 % 0.5 mm
14:42 12.8 °C 10.0 °C 1023.2 hPa North 3.2 km/h 17.7 km/h 83 % 1.0 mm
14:47 12.6 °C 10.3 °C 1023.2 hPa Calm   17.7 km/h 86 % 1.0 mm
14:52 12.7 °C 10.6 °C 1023.2 hPa Calm   4.8 km/h 87 % 1.0 mm
14:57 13.4 °C 11.8 °C 1023.2 hPa Calm   4.8 km/h 90 % 1.0 mm
15:02 14.5 °C 12.5 °C 1023.2 hPa Calm   4.8 km/h 88 % 1.0 mm
15:12 15.4 °C 12.3 °C 1023.2 hPa Calm   3.2 km/h 82 % 1.0 mm
15:17 15.8 °C 12.9 °C 1023.6 hPa NE 4.8 km/h 4.8 km/h 83 % 1.0 mm
15:22 15.4 °C 10.2 °C 1023.6 hPa East 3.2 km/h 17.7 km/h 71 % 0.8 mm
15:27 15.3 °C 10.7 °C 1023.2 hPa Calm   17.7 km/h 74 % 0.5 mm
15:32 15.4 °C 10.6 °C 1023.6 hPa ESE 1.6 km/h 17.7 km/h 73 % 0.5 mm
15:37 15.2 °C 10.8 °C 1023.2 hPa East 1.6 km/h 14.5 km/h 75 % 0.0 mm
15:42 15.1 °C 10.7 °C 1023.2 hPa ENE 1.6 km/h 11.3 km/h 75 % 0.0 mm
15:47 15.5 °C 11.5 °C 1023.2 hPa Calm   6.4 km/h 77 % 0.0 mm
15:57 16.4 °C 10.7 °C 1023.2 hPa Calm   9.7 km/h 69 % 0.0 mm
16:02 16.6 °C 10.4 °C 1023.2 hPa Calm   11.3 km/h 67 % 0.0 mm
16:12 16.9 °C 11.2 °C 1023.2 hPa East 1.6 km/h 17.7 km/h 69 % 0.0 mm
16:17 17.4 °C 11.7 °C 1023.2 hPa East 3.2 km/h 17.7 km/h 69 % 0.0 mm
16:22 17.6 °C 10.9 °C 1023.2 hPa East 1.6 km/h 17.7 km/h 65 % 0.0 mm
16:27 18.1 °C 10.9 °C 1023.2 hPa NE 1.6 km/h 9.7 km/h 63 % 0.0 mm
16:32 18.6 °C 11.2 °C 1023.2 hPa SE 4.8 km/h 11.3 km/h 62 % 0.0 mm
16:37 18.7 °C 10.5 °C 1023.2 hPa East 9.7 km/h 11.3 km/h 59 % 0.0 mm
16:42 18.8 °C 10.9 °C 1023.2 hPa NE 9.7 km/h 12.9 km/h 60 % 0.0 mm
16:47 18.9 °C 10.7 °C 1023.2 hPa SW 1.6 km/h 12.9 km/h 59 % 0.0 mm
16:52 19.3 °C 10.8 °C 1022.9 hPa Calm   12.9 km/h 58 % 0.0 mm
16:57 19.7 °C 10.9 °C 1022.9 hPa NE 3.2 km/h 12.9 km/h 57 % 0.0 mm
17:02 19.6 °C 10.3 °C 1022.9 hPa ENE 3.2 km/h 11.3 km/h 55 % 0.0 mm
17:12 19.7 °C 10.9 °C 1022.9 hPa NE 4.8 km/h 14.5 km/h 57 % 0.0 mm
17:17 19.2 °C 11.0 °C 1022.9 hPa ENE 3.2 km/h 14.5 km/h 59 % 0.0 mm
17:22 19.1 °C 10.4 °C 1022.9 hPa NE 6.4 km/h 9.7 km/h 57 % 0.0 mm
17:27 19.3 °C 10.3 °C 1022.9 hPa East 3.2 km/h 12.9 km/h 56 % 0.0 mm
17:32 19.8 °C 10.8 °C 1022.9 hPa Calm   12.9 km/h 56 % 0.0 mm
17:42 19.7 °C 9.6 °C 1022.9 hPa NE 14.5 km/h 14.5 km/h 52 % 0.0 mm
17:47 19.1 °C 9.8 °C 1023.2 hPa East 9.7 km/h 14.5 km/h 55 % 0.0 mm
17:52 18.8 °C 10.1 °C 1023.2 hPa NE 4.8 km/h 14.5 km/h 57 % 0.0 mm
17:57 18.7 °C 9.5 °C 1023.2 hPa NE 8.0 km/h 14.5 km/h 55 % 0.0 mm
18:02 18.4 °C 9.7 °C 1023.2 hPa ENE 8.0 km/h 12.9 km/h 57 % 0.0 mm
18:07 18.3 °C 9.6 °C 1023.2 hPa ENE 4.8 km/h 12.9 km/h 57 % 0.0 mm
18:12 18.5 °C 10.1 °C 1023.2 hPa ENE 4.8 km/h 16.1 km/h 58 % 0.0 mm
18:17 18.7 °C 9.7 °C 1023.2 hPa ENE 4.8 km/h 16.1 km/h 56 % 0.0 mm
18:22 19.2 °C 10.2 °C 1023.2 hPa NE 3.2 km/h 16.1 km/h 56 % 0.0 mm
18:27 19.5 °C 10.2 °C 1023.2 hPa SE 4.8 km/h 11.3 km/h 55 % 0.0 mm
18:32 19.8 °C 9.9 °C 1023.2 hPa ENE 11.3 km/h 11.3 km/h 53 % 0.0 mm
18:37 19.6 °C 8.9 °C 1023.2 hPa ENE 3.2 km/h 16.1 km/h 50 % 0.0 mm
18:42 19.2 °C 9.9 °C 1023.2 hPa ENE 3.2 km/h 16.1 km/h 55 % 0.0 mm
18:47 19.2 °C 8.8 °C 1023.2 hPa ESE 6.4 km/h 16.1 km/h 51 % 0.0 mm
18:52 19.2 °C 9.4 °C 1023.2 hPa NE 4.8 km/h 12.9 km/h 53 % 0.0 mm
18:57 19.3 °C 9.8 °C 1023.2 hPa ENE 8.0 km/h 12.9 km/h 54 % 0.0 mm
19:02 19.1 °C 9.8 °C 1023.2 hPa ENE 1.6 km/h 12.9 km/h 55 % 0.0 mm
19:12 18.9 °C 9.4 °C 1023.2 hPa NE 3.2 km/h 14.5 km/h 54 % 0.0 mm
19:17 18.8 °C 9.3 °C 1023.2 hPa NNE 3.2 km/h 14.5 km/h 54 % 0.0 mm
19:22 18.7 °C 9.2 °C 1023.2 hPa ENE 3.2 km/h 11.3 km/h 54 % 0.0 mm
19:32 18.6 °C 9.9 °C 1023.2 hPa ESE 6.4 km/h 11.3 km/h 57 % 0.0 mm
19:37 18.5 °C 9.3 °C 1023.2 hPa ENE 3.2 km/h 11.3 km/h 55 % 0.0 mm
19:42 18.4 °C 9.5 °C 1023.6 hPa NNE 8.0 km/h 9.7 km/h 56 % 0.0 mm
19:47 18.4 °C 9.2 °C 1023.6 hPa ENE 4.8 km/h 11.3 km/h 55 % 0.0 mm
19:52 18.3 °C 9.1 °C 1023.6 hPa East 9.7 km/h 11.3 km/h 55 % 0.0 mm
19:57 18.2 °C 9.0 °C 1023.6 hPa ENE 3.2 km/h 12.9 km/h 55 % 0.0 mm
20:02 18.2 °C 8.7 °C 1023.6 hPa NE 3.2 km/h 12.9 km/h 54 % 0.0 mm
20:12 18.1 °C 8.9 °C 1023.6 hPa ENE 3.2 km/h 11.3 km/h 55 % 0.0 mm
20:17 17.9 °C 9.0 °C 1023.6 hPa NE 3.2 km/h 9.7 km/h 56 % 0.0 mm
20:22 17.8 °C 9.2 °C 1023.9 hPa NNE 1.6 km/h 8.0 km/h 57 % 0.0 mm
20:27 17.7 °C 9.3 °C 1023.9 hPa Calm   8.0 km/h 58 % 0.0 mm
20:32 17.6 °C 9.2 °C 1023.9 hPa ENE 3.2 km/h 8.0 km/h 58 % 0.0 mm
20:37 17.4 °C 9.6 °C 1023.9 hPa ENE 4.8 km/h 6.4 km/h 60 % 0.0 mm
20:42 17.2 °C 9.6 °C 1023.9 hPa NE 4.8 km/h 8.0 km/h 61 % 0.0 mm
20:52 16.9 °C 10.3 °C 1024.3 hPa NE 8.0 km/h 9.7 km/h 65 % 0.0 mm
20:57 16.8 °C 10.4 °C 1024.3 hPa East 1.6 km/h 11.3 km/h 66 % 0.0 mm
21:02 16.6 °C 10.4 °C 1024.3 hPa NE 1.6 km/h 11.3 km/h 67 % 0.0 mm
21:07 16.3 °C 10.2 °C 1024.3 hPa Calm   11.3 km/h 67 % 0.0 mm
21:12 16.2 °C 10.3 °C 1024.3 hPa Calm   6.4 km/h 68 % 0.0 mm
21:17 15.9 °C 10.2 °C 1024.3 hPa NE 1.6 km/h 3.2 km/h 69 % 0.0 mm
21:22 15.8 °C 10.1 °C 1024.3 hPa Calm   3.2 km/h 69 % 0.0 mm
21:27 15.6 °C 10.4 °C 1024.3 hPa Calm   4.8 km/h 71 % 0.0 mm
21:32 15.2 °C 10.2 °C 1024.3 hPa Calm   4.8 km/h 72 % 0.0 mm
21:37 14.9 °C 10.1 °C 1024.6 hPa Calm   3.2 km/h 73 % 0.0 mm
21:42 14.6 °C 10.2 °C 1024.6 hPa Calm     75 % 0.0 mm
21:47 14.2 °C 10.0 °C 1024.6 hPa Calm     76 % 0.0 mm
21:52 13.8 °C 9.8 °C 1024.9 hPa Calm     77 % 0.0 mm
21:57 13.5 °C 9.9 °C 1024.9 hPa Calm     79 % 0.0 mm
22:02 13.2 °C 9.8 °C 1024.9 hPa Calm     80 % 0.0 mm
22:07 12.9 °C 9.9 °C 1024.9 hPa Calm     82 % 0.0 mm
22:12 12.7 °C 9.7 °C 1024.9 hPa Calm     82 % 0.0 mm
22:17 12.4 °C 9.8 °C 1025.3 hPa Calm     84 % 0.0 mm
22:22 12.3 °C 9.9 °C 1025.3 hPa Calm     85 % 0.0 mm
22:27 12.1 °C 9.7 °C 1025.3 hPa Calm     85 % 0.0 mm
22:32 12.0 °C 9.9 °C 1025.3 hPa Calm     87 % 0.0 mm
22:37 11.8 °C 9.7 °C 1025.3 hPa Calm     87 % 0.0 mm
22:42 11.8 °C 9.9 °C 1025.3 hPa Calm     88 % 0.0 mm
22:52 11.6 °C 9.7 °C 1025.6 hPa Calm     88 % 0.0 mm
22:57 11.6 °C 9.8 °C 1025.6 hPa Calm     89 % 0.0 mm
23:02 11.5 °C 9.7 °C 1025.6 hPa Calm     89 % 0.0 mm
23:12 11.3 °C 9.6 °C 1025.6 hPa Calm     89 % 0.0 mm
23:17 11.2 °C 9.6 °C 1025.6 hPa Calm     90 % 0.0 mm
23:22 11.2 °C 9.6 °C 1025.6 hPa Calm     90 % 0.0 mm
23:27 11.0 °C 9.4 °C 1025.6 hPa Calm     90 % 0.0 mm
23:32 10.9 °C 9.3 °C 1025.6 hPa Calm     90 % 0.0 mm
23:37 10.8 °C 9.4 °C 1025.6 hPa Calm     91 % 0.0 mm
23:42 10.8 °C 9.4 °C 1026.0 hPa Calm     91 % 0.0 mm
23:52 10.6 °C 9.4 °C 1026.0 hPa Calm     92 % 0.0 mm
23:57 10.6 °C 9.4 °C 1026.0 hPa Calm     92 % 0.0 mm
Meteo18
Compliments of Weather Underground - 4 mb

Script developed by  Jim McMurry - jmcmurry@mwt.net Adapted for the template by  Wim van der Kuil - Leuven-Template.eu

You find our weather info also at:

European Weather Network

Weather Underground

Equipment we use:

Weather-station
Davis Vue

Weather-program
Meteohub

Weather-server
Raspberry PI 2 B+

Provider
1 and 1

Davis Vue

Meteohub

Raspberry PI 2 B+

1 and 1